Time;durP1;ratioP1;P1;durP2;ratioP2;P2;SDS_P1;SDS_P2;PMS_P1;PMS_P2;Temp;Humidity;BMP_temperature;BMP_pressure;BME280_temperature;BME280_humidity;BME280_pressure;Samples;Min_cycle;Max_cycle;Signal;HPM_P1;HPM_P2
2022/04/16 00:00:54;;;;;;;3.80;2.43;;;9.40;99.90;;;;;;4896021;29;20211;-74
2022/04/16 00:03:22;;;;;;;3.10;2.53;;;9.30;99.90;;;;;;4895753;29;20208;-75
2022/04/16 00:05:54;;;;;;;4.07;2.70;;;9.20;99.90;;;;;;4896671;29;20204;-77
2022/04/16 00:08:22;;;;;;;4.73;2.70;;;9.10;99.90;;;;;;4895243;29;20204;-74
2022/04/16 00:10:50;;;;;;;3.57;2.73;;;9.00;99.90;;;;;;4894594;29;20256;-74
2022/04/16 00:13:18;;;;;;;3.07;2.50;;;9.00;99.90;;;;;;4896096;29;20303;-74
2022/04/16 00:15:46;;;;;;;3.47;2.50;;;8.90;99.90;;;;;;4901187;29;20322;-74
2022/04/16 00:18:14;;;;;;;3.50;2.77;;;8.90;99.90;;;;;;4892824;29;20221;-74
2022/04/16 00:20:44;;;;;;;3.37;2.50;;;8.80;99.90;;;;;;4894763;29;20247;-75
2022/04/16 00:23:12;;;;;;;3.93;2.70;;;8.80;99.90;;;;;;4894928;29;20199;-74
2022/04/16 00:25:39;;;;;;;6.60;2.77;;;8.80;99.90;;;;;;4893666;29;20207;-73
2022/04/16 00:28:08;;;;;;;4.17;2.80;;;8.90;99.90;;;;;;4896750;29;20200;-77
2022/04/16 00:30:37;;;;;;;3.80;2.93;;;8.90;99.90;;;;;;4896122;29;20696;-74
2022/04/16 00:33:05;;;;;;;4.30;2.70;;;8.90;99.90;;;;;;4899098;29;20771;-74
2022/04/16 00:35:32;;;;;;;5.40;3.27;;;8.90;99.90;;;;;;4887554;29;20203;-72
2022/04/16 00:37:59;;;;;;;4.23;3.17;;;8.90;99.90;;;;;;4906288;29;20206;-73
2022/04/16 00:40:26;;;;;;;6.70;3.57;;;8.80;99.90;;;;;;4888151;29;20222;-77
2022/04/16 00:42:53;;;;;;;4.50;3.10;;;8.90;99.90;;;;;;4899732;29;20215;-75
2022/04/16 00:45:20;;;;;;;5.47;3.13;;;9.00;99.90;;;;;;4890174;29;20697;-74
2022/04/16 00:47:47;;;;;;;5.27;3.20;;;9.10;99.90;;;;;;4902248;29;20217;-75
2022/04/16 00:50:14;;;;;;;4.20;3.17;;;9.00;99.90;;;;;;4891512;29;20233;-74
2022/04/16 00:52:41;;;;;;;4.13;3.10;;;9.00;99.90;;;;;;4896994;29;20201;-74
2022/04/16 00:55:09;;;;;;;7.10;3.77;;;9.00;99.90;;;;;;4887297;29;20283;-74
2022/04/16 00:57:39;;;;;;;3.87;3.10;;;9.00;99.90;;;;;;4893670;29;20262;-73
2022/04/16 01:00:08;;;;;;;4.40;3.13;;;9.00;99.90;;;;;;4887148;29;20640;-74
2022/04/16 01:02:36;;;;;;;4.53;3.60;;;9.00;99.90;;;;;;4896800;29;20652;-76
2022/04/16 01:05:04;;;;;;;4.70;3.50;;;9.10;99.90;;;;;;4895720;29;20209;-76
2022/04/16 01:07:32;;;;;;;5.17;3.37;;;9.00;99.90;;;;;;4893533;29;20283;-74
2022/04/16 01:09:58;;;;;;;5.13;3.40;;;9.10;99.90;;;;;;4888614;29;20231;-74
2022/04/16 01:12:26;;;;;;;4.80;3.80;;;9.00;99.90;;;;;;4889453;29;20255;-77
2022/04/16 01:14:54;;;;;;;4.57;3.40;;;9.10;99.90;;;;;;4897244;29;20227;-74
2022/04/16 01:17:21;;;;;;;4.80;3.40;;;9.20;99.90;;;;;;4897018;29;20787;-76
2022/04/16 01:19:48;;;;;;;3.63;3.03;;;9.30;99.90;;;;;;4895865;29;20223;-75
2022/04/16 01:22:14;;;;;;;6.40;3.77;;;9.30;99.90;;;;;;4899471;29;20205;-75
2022/04/16 01:24:48;;;;;;;3.80;3.17;;;9.30;99.90;;;;;;4896906;29;20683;-74
2022/04/16 01:27:17;;;;;;;5.27;3.50;;;9.30;99.90;;;;;;4907636;29;20200;-74
2022/04/16 01:29:44;;;;;;;4.97;3.40;;;9.30;99.90;;;;;;4892546;29;20271;-75
2022/04/16 01:32:11;;;;;;;4.60;3.63;;;9.30;99.90;;;;;;4902806;29;20207;-74
2022/04/16 01:34:37;;;;;;;5.53;3.50;;;9.30;99.90;;;;;;4897593;29;20233;-73
2022/04/16 01:37:05;;;;;;;6.90;3.23;;;9.30;99.90;;;;;;4889314;29;20702;-74
2022/04/16 01:39:32;;;;;;;5.47;3.50;;;9.30;99.90;;;;;;4897314;29;20224;-75
2022/04/16 01:41:59;;;;;;;5.13;3.10;;;9.20;99.90;;;;;;4892127;29;20245;-74
2022/04/16 01:44:29;;;;;;;5.20;3.30;;;9.20;99.90;;;;;;4894965;29;20214;-74
2022/04/16 01:46:56;;;;;;;5.17;3.70;;;9.20;99.90;;;;;;4908565;29;20688;-77
2022/04/16 01:49:24;;;;;;;6.13;3.97;;;9.10;99.90;;;;;;4906281;29;20233;-74
2022/04/16 01:51:51;;;;;;;5.20;3.67;;;9.10;99.90;;;;;;4905335;29;20209;-74
2022/04/16 01:54:17;;;;;;;5.43;3.73;;;9.10;99.90;;;;;;4902300;29;20221;-74
2022/04/16 01:56:44;;;;;;;4.77;3.63;;;9.00;99.90;;;;;;4904894;29;20208;-75
2022/04/16 01:59:11;;;;;;;5.43;3.50;;;8.90;99.90;;;;;;4905221;29;20235;-76
2022/04/16 02:01:38;;;;;;;8.17;3.70;;;8.90;99.90;;;;;;4898738;29;20260;-73
2022/04/16 02:04:05;;;;;;;6.27;3.97;;;9.00;99.90;;;;;;4900780;29;20262;-75
2022/04/16 02:06:31;;;;;;;5.80;3.70;;;9.00;99.90;;;;;;4898546;29;20232;-74
2022/04/16 02:08:58;;;;;;;4.57;3.50;;;9.10;99.90;;;;;;4897823;29;20980;-74
2022/04/16 02:11:25;;;;;;;5.23;3.67;;;9.10;99.90;;;;;;4900090;29;20542;-76
2022/04/16 02:13:51;;;;;;;5.53;4.00;;;9.00;99.90;;;;;;4897075;29;20280;-75
2022/04/16 02:16:18;;;;;;;5.40;3.77;;;9.00;99.90;;;;;;4896398;29;20684;-74
2022/04/16 02:18:45;;;;;;;5.00;3.40;;;8.90;99.90;;;;;;4895871;29;20219;-74
2022/04/16 02:21:11;;;;;;;5.03;3.70;;;8.90;99.90;;;;;;4897110;29;20229;-75
2022/04/16 02:23:38;;;;;;;5.47;3.83;;;8.90;99.90;;;;;;4897106;29;20207;-72
2022/04/16 02:26:06;;;;;;;5.50;3.90;;;8.90;99.90;;;;;;4888389;29;20216;-78
2022/04/16 02:28:34;;;;;;;6.80;4.33;;;9.10;99.90;;;;;;4893447;29;20652;-74
2022/04/16 02:31:01;;;;;;;5.90;4.07;;;9.30;99.90;;;;;;4895286;29;20228;-75
2022/04/16 02:33:28;;;;;;;4.77;3.63;;;9.40;99.90;;;;;;4897512;29;20407;-77
2022/04/16 02:35:55;;;;;;;5.93;4.07;;;9.50;99.90;;;;;;4911294;29;20226;-74
2022/04/16 02:38:21;;;;;;;6.10;4.30;;;9.50;99.90;;;;;;4894720;29;20207;-74
2022/04/16 02:40:48;;;;;;;6.33;4.17;;;9.70;99.90;;;;;;4898748;29;20211;-77
2022/04/16 02:43:15;;;;;;;7.27;4.57;;;9.80;99.90;;;;;;4892224;29;20205;-74
2022/04/16 02:48:26;;;;;;;6.70;4.43;;;9.80;99.90;;;;;;4894268;29;20208;-74
2022/04/16 02:50:53;;;;;;;7.43;4.60;;;9.90;99.90;;;;;;4920091;29;20251;-74
2022/04/16 02:53:20;;;;;;;6.50;4.40;;;10.00;99.90;;;;;;4894078;29;20204;-73
2022/04/16 02:55:47;;;;;;;8.40;4.80;;;10.20;99.90;;;;;;4892606;29;20200;-75
2022/04/16 02:58:13;;;;;;;10.07;4.73;;;10.10;99.90;;;;;;4890502;29;20567;-74
2022/04/16 03:00:41;;;;;;;8.20;4.97;;;10.10;99.90;;;;;;4900353;29;20711;-75
2022/04/16 03:03:08;;;;;;;7.13;4.90;;;10.10;99.90;;;;;;4895034;29;20200;-74
2022/04/16 03:05:35;;;;;;;7.23;4.63;;;10.20;99.90;;;;;;4894460;29;20404;-73
2022/04/16 03:08:07;;;;;;;8.30;5.13;;;10.20;99.90;;;;;;4895563;29;20797;-76
2022/04/16 03:10:34;;;;;;;9.80;4.87;;;10.30;99.90;;;;;;4891448;29;20638;-74
2022/04/16 03:13:02;;;;;;;8.37;4.93;;;10.40;99.90;;;;;;4895259;29;20204;-78
2022/04/16 03:18:14;;;;;;;6.67;4.53;;;10.50;99.90;;;;;;4888991;29;20200;-78
2022/04/16 03:20:42;;;;;;;9.27;5.20;;;10.60;99.90;;;;;;4896005;29;20220;-78
2022/04/16 03:23:09;;;;;;;7.77;4.67;;;10.60;99.90;;;;;;4894557;29;20718;-83
2022/04/16 03:25:40;;;;;;;11.13;5.10;;;10.60;99.90;;;;;;4897061;29;20296;-79
2022/04/16 03:28:07;;;;;;;7.67;4.53;;;10.70;99.90;;;;;;4887894;29;20202;-75
2022/04/16 03:30:34;;;;;;;8.53;5.07;;;10.70;99.90;;;;;;4894723;29;20231;-76
2022/04/16 03:33:01;;;;;;;9.57;5.40;;;10.70;99.90;;;;;;4894300;29;20284;-76
2022/04/16 03:35:28;;;;;;;9.43;5.00;;;10.80;99.90;;;;;;4893398;29;20230;-79
2022/04/16 03:37:55;;;;;;;8.97;5.30;;;10.80;99.90;;;;;;4906283;29;20193;-76
2022/04/16 03:40:26;;;;;;;7.07;4.87;;;10.70;99.90;;;;;;4902324;29;20235;-78
2022/04/16 03:42:58;;;;;;;10.00;5.37;;;10.80;99.90;;;;;;4907244;29;20196;-75
2022/04/16 03:45:31;;;;;;;8.23;5.00;;;10.80;99.90;;;;;;4901374;29;20299;-78
2022/04/16 03:47:59;;;;;;;8.40;4.70;;;10.80;99.90;;;;;;4895137;29;20204;-75
2022/04/16 03:50:27;;;;;;;7.67;4.63;;;10.90;99.90;;;;;;4894869;29;20229;-78
2022/04/16 03:52:56;;;;;;;8.57;5.20;;;11.00;99.90;;;;;;4899435;29;20204;-79
2022/04/16 04:01:00;;;;;;;8.17;5.00;;;11.00;99.90;;;;;;4895040;29;20230;-79
2022/04/16 04:03:27;;;;;;;9.17;5.23;;;11.00;99.90;;;;;;4899431;29;20196;-82
2022/04/16 04:05:56;;;;;;;8.03;5.20;;;11.00;99.90;;;;;;4893684;29;20215;-82
2022/04/16 04:08:25;;;;;;;10.40;5.20;;;10.90;99.90;;;;;;4905719;29;20204;-80
2022/04/16 04:10:52;;;;;;;8.73;5.47;;;10.90;99.90;;;;;;4889049;29;20204;-81
2022/04/16 04:13:19;;;;;;;8.03;5.00;;;10.80;99.90;;;;;;4893833;29;20629;-81
2022/04/16 04:15:46;;;;;;;11.30;5.23;;;10.80;99.90;;;;;;4890842;29;20277;-85
2022/04/16 04:18:13;;;;;;;8.30;4.50;;;10.90;99.90;;;;;;4897549;29;20565;-85
2022/04/16 04:20:39;;;;;;;8.23;4.90;;;10.80;99.90;;;;;;4892001;29;20223;-85
2022/04/16 04:23:06;;;;;;;7.37;4.83;;;10.70;99.90;;;;;;4894618;29;20286;-83
2022/04/16 04:25:33;;;;;;;6.93;5.00;;;10.70;99.90;;;;;;4897552;29;20208;-80
2022/04/16 04:28:00;;;;;;;8.83;5.67;;;10.70;99.90;;;;;;4890971;29;20303;-81
2022/04/16 04:30:27;;;;;;;9.43;4.70;;;10.60;99.90;;;;;;4895636;29;20231;-79
2022/04/16 04:32:57;;;;;;;7.57;5.10;;;10.60;99.90;;;;;;4890397;29;20210;-80
2022/04/16 04:35:24;;;;;;;8.47;5.13;;;10.60;99.90;;;;;;4886172;29;20275;-81
2022/04/16 04:37:51;;;;;;;9.00;5.40;;;10.50;99.90;;;;;;4895318;29;20229;-75
2022/04/16 04:40:17;;;;;;;8.63;4.57;;;10.50;99.90;;;;;;4894483;29;20727;-79
2022/04/16 04:42:44;;;;;;;8.53;5.43;;;10.50;99.90;;;;;;4908071;29;20252;-79
2022/04/16 04:45:13;;;;;;;8.37;5.13;;;10.50;99.90;;;;;;4892953;29;20207;-77
2022/04/16 04:47:40;;;;;;;8.20;5.10;;;10.60;99.90;;;;;;4886408;29;20217;-80
2022/04/16 04:50:08;;;;;;;11.47;5.60;;;10.70;99.90;;;;;;4897643;29;20234;-77
2022/04/16 04:52:39;;;;;;;7.40;4.57;;;10.90;99.90;;;;;;4891921;29;20211;-77
2022/04/16 04:55:12;;;;;;;9.00;5.60;;;10.80;99.90;;;;;;4898179;29;20220;-77
2022/04/16 04:57:40;;;;;;;8.63;5.23;;;10.80;99.90;;;;;;4894681;29;20207;-79
2022/04/16 05:00:09;;;;;;;7.80;4.87;;;10.80;99.90;;;;;;4897041;29;20232;-80
2022/04/16 05:02:49;;;;;;;9.50;5.73;;;10.90;99.90;;;;;;4894142;29;20208;-80
2022/04/16 05:05:16;;;;;;;8.43;5.07;;;10.90;99.90;;;;;;4890876;29;20223;-79
2022/04/16 05:07:45;;;;;;;7.77;4.97;;;10.90;99.90;;;;;;4895881;29;20210;-87
2022/04/16 05:10:12;;;;;;;10.47;5.60;;;10.90;99.90;;;;;;4897446;29;20550;-81
2022/04/16 05:12:39;;;;;;;6.83;4.87;;;10.90;99.90;;;;;;4894887;29;20197;-87
2022/04/16 05:15:06;;;;;;;10.23;5.07;;;11.00;99.90;;;;;;4892584;29;20237;-87
2022/04/16 05:17:36;;;;;;;9.93;5.03;;;11.10;99.90;;;;;;4895589;29;20201;-85
2022/04/16 05:20:04;;;;;;;9.90;5.50;;;11.20;99.90;;;;;;4902842;29;20224;-84
2022/04/16 05:22:31;;;;;;;9.23;5.00;;;11.20;99.90;;;;;;4895646;29;20268;-84
2022/04/16 05:24:58;;;;;;;8.40;5.50;;;11.20;99.90;;;;;;4898862;29;20333;-82
2022/04/16 05:27:25;;;;;;;9.10;5.13;;;11.20;99.90;;;;;;4896008;29;20204;-85
2022/04/16 05:30:07;;;;;;;9.93;5.13;;;11.30;99.90;;;;;;4893966;29;20239;-85
2022/04/16 05:32:40;;;;;;;9.23;5.13;;;11.30;99.90;;;;;;4897670;29;20213;-84
2022/04/16 05:35:08;;;;;;;9.73;5.10;;;11.30;99.90;;;;;;4924754;29;20542;-79
2022/04/16 05:37:35;;;;;;;7.23;4.80;;;11.20;99.90;;;;;;4898407;29;20209;-78
2022/04/16 05:40:06;;;;;;;9.23;5.27;;;11.20;99.90;;;;;;4891840;29;20228;-84
2022/04/16 05:42:39;;;;;;;7.90;4.73;;;11.20;99.90;;;;;;4895128;29;20572;-83
2022/04/16 05:45:06;;;;;;;9.87;5.10;;;11.20;99.90;;;;;;4895466;29;20204;-83
2022/04/16 05:47:33;;;;;;;10.10;5.10;;;11.30;99.90;;;;;;4897026;29;20686;-83
2022/04/16 05:50:00;;;;;;;7.67;4.90;;;11.30;99.90;;;;;;4894979;29;20222;-82
2022/04/16 05:52:27;;;;;;;6.60;4.40;;;11.30;99.90;;;;;;4895072;29;20256;-85
2022/04/16 05:54:54;;;;;;;5.33;3.83;;;11.30;99.90;;;;;;4895130;29;20416;-83
2022/04/16 05:57:22;;;;;;;4.97;3.53;;;11.40;99.90;;;;;;4899640;29;20208;-82
2022/04/16 05:59:49;;;;;;;4.60;3.73;;;11.50;99.90;;;;;;4891129;29;20220;-82
2022/04/16 06:02:15;;;;;;;5.23;3.83;;;11.60;99.90;;;;;;4897297;29;20197;-76
2022/04/16 06:04:42;;;;;;;4.73;3.40;;;11.60;99.90;;;;;;4893116;29;20230;-78
2022/04/16 06:07:09;;;;;;;6.00;3.30;;;11.50;99.90;;;;;;4910876;29;20210;-75
2022/04/16 06:09:35;;;;;;;4.40;3.30;;;11.40;99.90;;;;;;4894974;29;20220;-78
2022/04/16 06:12:05;;;;;;;5.53;3.40;;;11.40;99.90;;;;;;4896738;29;20207;-77
2022/04/16 06:14:32;;;;;;;5.47;3.37;;;11.30;99.90;;;;;;4890296;29;20235;-74
2022/04/16 06:16:59;;;;;;;5.30;3.37;;;11.30;99.90;;;;;;4892744;29;20208;-78
2022/04/16 06:19:26;;;;;;;5.30;3.60;;;11.20;99.90;;;;;;4894554;29;20311;-80
2022/04/16 06:21:52;;;;;;;5.37;3.73;;;11.30;99.90;;;;;;4897057;29;20205;-79
2022/04/16 06:24:19;;;;;;;5.23;3.67;;;11.40;99.90;;;;;;4906355;29;20223;-86
2022/04/16 06:26:47;;;;;;;4.97;2.97;;;11.50;99.90;;;;;;4894556;29;20200;-81
2022/04/16 06:29:14;;;;;;;5.53;3.13;;;11.70;99.90;;;;;;4893744;29;20236;-85
2022/04/16 06:31:42;;;;;;;4.83;3.30;;;11.80;99.90;;;;;;4892636;29;20196;-81
2022/04/16 06:34:09;;;;;;;5.50;3.87;;;11.90;99.90;;;;;;4890832;29;20217;-84
2022/04/16 06:36:37;;;;;;;5.37;2.90;;;12.00;99.90;;;;;;4897596;29;20641;-74
2022/04/16 06:39:04;;;;;;;4.00;3.10;;;12.00;99.90;;;;;;4895905;29;20226;-79
2022/04/16 06:41:32;;;;;;;4.10;2.93;;;12.20;99.90;;;;;;4896629;29;20196;-80
2022/04/16 06:43:58;;;;;;;3.60;2.77;;;12.30;99.90;;;;;;4893299;29;20749;-76
2022/04/16 06:46:25;;;;;;;5.00;3.50;;;12.10;99.90;;;;;;4896379;29;20206;-77
2022/04/16 06:48:52;;;;;;;5.20;3.53;;;12.20;99.90;;;;;;4895235;29;20226;-76
2022/04/16 06:51:18;;;;;;;4.93;3.50;;;12.30;99.90;;;;;;4890368;29;20201;-81
2022/04/16 06:53:45;;;;;;;5.07;3.57;;;12.30;99.90;;;;;;4888377;29;20244;-78
2022/04/16 06:56:11;;;;;;;8.23;4.10;;;12.50;99.90;;;;;;4894751;29;20592;-81
2022/04/16 06:58:38;;;;;;;5.13;3.87;;;12.60;99.90;;;;;;4891389;29;20229;-82
2022/04/16 07:01:05;;;;;;;4.43;3.20;;;12.70;99.90;;;;;;4896003;29;20596;-86
2022/04/16 07:03:32;;;;;;;4.67;3.27;;;12.70;99.90;;;;;;4892606;29;20686;-82
2022/04/16 07:05:58;;;;;;;5.03;3.50;;;12.70;99.90;;;;;;4892576;29;20701;-84
2022/04/16 07:08:25;;;;;;;4.90;3.43;;;12.50;99.90;;;;;;4894549;29;20213;-81
2022/04/16 07:10:52;;;;;;;4.17;3.40;;;12.30;99.90;;;;;;4892114;29;20217;-80
2022/04/16 07:13:19;;;;;;;7.53;3.47;;;12.20;99.90;;;;;;4893891;29;20211;-82
2022/04/16 07:15:46;;;;;;;5.20;3.20;;;12.30;99.90;;;;;;4896363;29;20218;-79
2022/04/16 07:18:13;;;;;;;3.77;2.97;;;12.30;99.90;;;;;;4894418;29;20736;-80
2022/04/16 07:20:40;;;;;;;4.73;3.40;;;12.30;99.90;;;;;;4896790;29;20722;-80
2022/04/16 07:23:07;;;;;;;4.10;3.40;;;12.30;99.90;;;;;;4897907;29;20210;-78
2022/04/16 07:25:34;;;;;;;4.63;3.20;;;12.40;99.90;;;;;;4895262;29;20238;-77
2022/04/16 07:28:01;;;;;;;3.93;2.70;;;12.40;99.90;;;;;;4892217;29;20211;-75
2022/04/16 07:30:28;;;;;;;4.30;2.80;;;12.40;99.90;;;;;;4906114;29;20631;-75
2022/04/16 07:32:54;;;;;;;8.47;2.70;;;12.40;99.90;;;;;;4889470;29;20214;-76
2022/04/16 07:35:26;;;;;;;4.23;2.80;;;12.60;99.90;;;;;;4889670;29;20836;-77
2022/04/16 07:37:57;;;;;;;10.50;2.70;;;12.70;99.90;;;;;;4891867;29;20210;-83
2022/04/16 07:40:25;;;;;;;3.70;2.57;;;12.70;99.90;;;;;;4889459;29;20233;-82
2022/04/16 07:42:52;;;;;;;3.63;2.40;;;12.70;99.90;;;;;;4893321;29;20204;-81
2022/04/16 07:45:21;;;;;;;2.90;2.33;;;12.60;99.90;;;;;;4894247;29;20202;-78
2022/04/16 07:47:48;;;;;;;3.07;2.50;;;12.50;99.90;;;;;;4894125;29;20207;-80
2022/04/16 07:50:16;;;;;;;3.10;2.17;;;12.60;99.90;;;;;;4908571;29;20740;-79
2022/04/16 07:52:46;;;;;;;7.17;2.77;;;12.70;99.90;;;;;;4893503;29;20225;-77
2022/04/16 07:55:14;;;;;;;6.13;2.50;;;12.90;99.90;;;;;;4894591;29;20225;-77
2022/04/16 07:57:42;;;;;;;4.60;2.30;;;13.10;99.90;;;;;;4892525;29;20210;-80
2022/04/16 08:00:10;;;;;;;2.97;2.40;;;13.00;99.90;;;;;;4893765;29;20239;-79
2022/04/16 08:02:36;;;;;;;2.97;2.03;;;13.00;99.90;;;;;;4891904;29;20199;-78
2022/04/16 08:05:04;;;;;;;3.53;2.60;;;13.00;99.90;;;;;;4894547;29;20298;-75
2022/04/16 08:07:32;;;;;;;5.33;2.70;;;13.00;99.90;;;;;;4908252;29;20261;-75
2022/04/16 08:09:58;;;;;;;5.23;2.60;;;13.00;99.90;;;;;;4891051;29;20731;-77
2022/04/16 08:12:25;;;;;;;3.97;2.53;;;13.10;99.90;;;;;;4891714;29;20199;-75
2022/04/16 08:14:52;;;;;;;3.30;2.50;;;12.90;99.90;;;;;;4893631;29;20199;-77
2022/04/16 08:17:19;;;;;;;7.27;2.00;;;13.00;99.90;;;;;;4894480;29;20207;-81
2022/04/16 08:19:46;;;;;;;14.20;1.77;;;13.40;99.90;;;;;;4892378;29;20219;-74
2022/04/16 08:22:17;;;;;;;4.67;1.70;;;13.70;99.90;;;;;;4891824;29;20235;-78
2022/04/16 08:24:54;;;;;;;14.83;1.60;;;13.50;99.90;;;;;;4909487;29;20201;-75
2022/04/16 08:27:21;;;;;;;6.00;1.60;;;13.60;99.90;;;;;;4896917;29;20582;-77
2022/04/16 08:29:47;;;;;;;3.77;1.67;;;13.90;99.90;;;;;;4897774;29;20740;-78
2022/04/16 08:32:14;;;;;;;5.33;1.67;;;14.20;99.90;;;;;;4897559;29;20733;-76
2022/04/16 08:34:50;;;;;;;4.73;1.47;;;14.50;99.90;;;;;;4893158;29;20719;-74
2022/04/16 08:37:17;;;;;;;3.77;1.70;;;14.60;99.90;;;;;;4897390;29;20213;-76
2022/04/16 08:39:43;;;;;;;1.97;1.50;;;14.40;99.90;;;;;;4895914;29;20215;-72
2022/04/16 08:42:11;;;;;;;2.50;1.63;;;14.10;99.90;;;;;;4895730;29;20287;-74
2022/04/16 08:44:39;;;;;;;3.93;1.50;;;14.10;99.90;;;;;;4897769;29;20256;-74
2022/04/16 08:47:06;;;;;;;2.50;1.70;;;14.20;99.90;;;;;;4897764;29;20576;-73
2022/04/16 08:49:33;;;;;;;1.80;1.40;;;14.00;99.90;;;;;;4892553;29;20470;-73
2022/04/16 08:52:02;;;;;;;2.00;1.40;;;14.00;99.90;;;;;;4894699;29;20236;-74
2022/04/16 08:54:30;;;;;;;2.20;1.50;;;13.80;99.90;;;;;;4894748;29;20212;-76
2022/04/16 08:56:56;;;;;;;1.97;1.60;;;13.90;99.90;;;;;;4897780;29;20226;-74
2022/04/16 08:59:23;;;;;;;2.17;1.40;;;13.90;99.90;;;;;;4896312;29;20213;-75
2022/04/16 09:01:51;;;;;;;2.00;1.60;;;13.80;99.90;;;;;;4897167;29;20219;-77
2022/04/16 09:04:22;;;;;;;1.83;1.50;;;13.50;99.90;;;;;;4894461;29;20382;-75
2022/04/16 09:07:00;;;;;;;2.57;1.70;;;13.60;99.90;;;;;;4895886;29;20673;-74
2022/04/16 09:09:28;;;;;;;4.37;1.93;;;13.50;99.90;;;;;;4891184;29;20243;-76
2022/04/16 09:11:55;;;;;;;2.83;1.90;;;13.40;99.90;;;;;;4894789;29;20212;-76
2022/04/16 09:14:33;;;;;;;2.97;2.17;;;13.40;99.90;;;;;;4895748;29;20207;-76
2022/04/16 09:17:00;;;;;;;3.63;2.23;;;13.50;99.90;;;;;;4893042;29;20223;-78
2022/04/16 09:19:30;;;;;;;2.90;1.93;;;13.80;99.90;;;;;;4891643;29;20239;-74
2022/04/16 09:21:58;;;;;;;3.50;2.07;;;13.80;99.90;;;;;;4897568;29;20202;-75
2022/04/16 09:24:24;;;;;;;3.10;2.00;;;13.70;99.90;;;;;;4897750;29;20205;-76
2022/04/16 09:26:51;;;;;;;3.00;2.03;;;13.90;99.90;;;;;;4895911;29;20213;-76
2022/04/16 09:29:19;;;;;;;3.63;2.20;;;14.30;99.90;;;;;;4893547;29;20297;-75
2022/04/16 09:31:48;;;;;;;3.10;2.10;;;14.40;99.90;;;;;;4893740;29;20224;-74
2022/04/16 09:34:23;;;;;;;3.63;2.60;;;14.40;99.90;;;;;;4895591;29;20208;-77
2022/04/16 09:36:51;;;;;;;4.17;2.60;;;14.10;99.90;;;;;;4911616;29;20225;-72
2022/04/16 09:39:21;;;;;;;4.50;2.67;;;14.00;99.90;;;;;;4896705;29;20251;-77
2022/04/16 09:41:51;;;;;;;4.47;3.00;;;13.90;99.90;;;;;;4896876;29;20200;-74
2022/04/16 09:44:20;;;;;;;3.97;2.70;;;13.70;99.90;;;;;;4910558;29;20204;-73
2022/04/16 09:46:52;;;;;;;5.47;3.43;;;13.70;99.90;;;;;;4893565;29;20636;-72
2022/04/16 09:49:19;;;;;;;6.07;3.23;;;13.80;99.90;;;;;;4896475;29;20289;-78
2022/04/16 09:51:46;;;;;;;4.30;2.90;;;13.80;99.90;;;;;;4897510;29;20212;-76
2022/04/16 09:54:15;;;;;;;4.73;2.90;;;14.10;99.90;;;;;;4905553;29;20209;-75
2022/04/16 09:56:47;;;;;;;5.40;3.13;;;14.30;99.90;;;;;;4910714;29;20217;-74
2022/04/16 09:59:15;;;;;;;6.07;3.10;;;14.10;99.90;;;;;;4895828;29;20241;-74
2022/04/16 10:01:47;;;;;;;4.33;2.67;;;14.00;99.90;;;;;;4891235;29;20216;-74
2022/04/16 10:04:19;;;;;;;3.97;2.80;;;13.90;99.90;;;;;;4895872;29;20216;-75
2022/04/16 10:06:47;;;;;;;5.10;2.73;;;13.80;99.90;;;;;;4896754;29;20208;-75
2022/04/16 10:09:17;;;;;;;3.87;2.77;;;13.80;99.90;;;;;;4898206;29;20228;-76
2022/04/16 10:14:49;;;;;;;4.93;3.30;;;13.90;99.90;;;;;;4885573;29;20208;-75
2022/04/16 10:17:31;;;;;;;5.43;3.47;;;13.90;99.90;;;;;;4893785;29;20619;-75
2022/04/16 10:20:07;;;;;;;5.03;3.20;;;14.00;99.90;;;;;;4889167;29;20221;-75
2022/04/16 10:22:34;;;;;;;4.40;2.93;;;13.80;99.90;;;;;;4889307;29;20275;-75
2022/04/16 10:25:01;;;;;;;5.10;3.20;;;13.90;99.90;;;;;;4892719;29;20225;-73
2022/04/16 10:27:29;;;;;;;5.07;2.70;;;14.10;99.90;;;;;;4894845;29;20207;-75
2022/04/16 10:30:00;;;;;;;4.87;2.50;;;14.30;99.90;;;;;;4895592;29;20236;-74
2022/04/16 10:32:38;;;;;;;5.73;3.10;;;14.20;99.90;;;;;;4926191;29;20356;-74
2022/04/16 10:35:05;;;;;;;4.03;2.70;;;14.10;99.90;;;;;;4893245;29;20218;-76
2022/04/16 10:37:40;;;;;;;4.17;2.60;;;14.20;99.90;;;;;;4894695;29;20227;-74
2022/04/16 10:40:23;;;;;;;4.07;2.50;;;14.00;99.90;;;;;;4888300;29;20716;-76
2022/04/16 10:42:52;;;;;;;4.00;2.90;;;13.90;99.90;;;;;;4891721;29;20612;-76
2022/04/16 10:45:20;;;;;;;4.73;2.37;;;14.00;99.90;;;;;;4903413;29;20206;-75
2022/04/16 10:47:50;;;;;;;3.27;2.23;;;14.10;99.90;;;;;;4888525;29;20200;-74
2022/04/16 10:50:18;;;;;;;3.93;2.83;;;14.20;99.90;;;;;;4893227;29;20219;-74
2022/04/16 10:52:58;;;;;;;4.70;2.60;;;14.20;99.90;;;;;;4891435;29;20210;-78
2022/04/16 10:55:32;;;;;;;3.43;2.50;;;14.40;99.90;;;;;;4895664;29;20207;-78
2022/04/16 10:58:08;;;;;;;3.67;2.77;;;14.30;99.90;;;;;;4887806;29;20198;-76
2022/04/16 11:00:44;;;;;;;5.73;3.03;;;14.50;99.90;;;;;;4888031;29;20230;-74
2022/04/16 11:03:35;;;;;;;3.63;2.40;;;14.80;99.90;;;;;;4893320;29;20204;-78
2022/04/16 11:06:09;;;;;;;5.87;2.63;;;14.60;99.90;;;;;;4888685;29;20241;-73
2022/04/16 11:08:41;;;;;;;3.13;2.50;;;14.60;99.90;;;;;;4893996;29;20208;-75
2022/04/16 11:11:08;;;;;;;4.70;2.50;;;14.80;99.90;;;;;;4894877;29;20209;-76
2022/04/16 11:13:37;;;;;;;4.77;2.93;;;14.70;99.90;;;;;;4895458;29;20204;-77
2022/04/16 11:16:04;;;;;;;3.47;2.20;;;14.50;99.90;;;;;;4890144;29;20234;-74
2022/04/16 11:18:43;;;;;;;4.30;2.17;;;14.40;99.90;;;;;;4886862;29;20477;-72
2022/04/16 11:21:19;;;;;;;3.13;2.20;;;14.50;99.90;;;;;;4888074;29;20199;-74
2022/04/16 11:23:47;;;;;;;3.97;2.40;;;14.50;99.90;;;;;;4894799;29;20571;-74
2022/04/16 11:34:34;;;;;;;3.53;2.50;;;14.70;99.90;;;;;;4894110;29;20739;-77
2022/04/16 11:37:21;;;;;;;5.10;2.20;;;14.60;99.90;;;;;;4893031;29;20785;-75
2022/04/16 11:40:05;;;;;;;4.00;2.43;;;14.70;99.90;;;;;;4894739;29;20225;-73
2022/04/16 11:42:32;;;;;;;4.47;2.30;;;14.60;99.90;;;;;;4890495;29;20337;-74
2022/04/16 11:44:59;;;;;;;4.27;2.40;;;14.80;99.90;;;;;;4892160;29;20670;-74
2022/04/16 11:47:27;;;;;;;3.67;2.17;;;14.90;99.90;;;;;;4909567;29;20212;-74
2022/04/16 11:50:01;;;;;;;3.47;2.00;;;15.00;99.90;;;;;;4886415;29;20270;-74
2022/04/16 11:52:30;;;;;;;4.97;1.90;;;14.90;99.90;;;;;;4894333;29;20310;-76
2022/04/16 11:55:05;;;;;;;2.63;1.87;;;15.00;99.90;;;;;;4894068;29;20200;-75
2022/04/16 11:57:36;;;;;;;2.87;1.90;;;15.20;99.90;;;;;;4889804;29;20230;-74
2022/04/16 12:00:08;;;;;;;4.03;2.17;;;15.20;99.90;;;;;;4890013;29;20227;-73
2022/04/16 12:02:40;;;;;;;2.43;1.90;;;15.20;99.90;;;;;;4889050;29;20305;-74
2022/04/16 12:05:11;;;;;;;2.57;1.80;;;15.50;99.90;;;;;;4890149;29;20252;-76
2022/04/16 12:07:43;;;;;;;2.17;1.60;;;15.70;99.90;;;;;;4890800;29;20207;-74
2022/04/16 12:10:15;;;;;;;2.67;1.67;;;15.60;99.90;;;;;;4907878;29;20224;-74
2022/04/16 12:12:50;;;;;;;2.60;1.77;;;15.40;99.90;;;;;;4914526;29;20208;-75
2022/04/16 12:15:27;;;;;;;2.00;1.27;;;15.50;99.90;;;;;;4894761;29;20211;-72
2022/04/16 12:17:57;;;;;;;3.23;1.47;;;15.50;99.90;;;;;;4892960;29;20230;-76
2022/04/16 12:20:25;;;;;;;2.30;1.50;;;15.50;99.90;;;;;;4914993;29;20229;-74
2022/04/16 12:23:02;;;;;;;3.00;1.20;;;15.50;99.90;;;;;;4888198;29;20244;-75
2022/04/16 12:25:30;;;;;;;2.03;1.60;;;15.40;99.90;;;;;;4893845;29;20287;-75
2022/04/16 12:28:00;;;;;;;1.60;1.37;;;15.50;99.90;;;;;;4893584;29;20200;-74
2022/04/16 12:30:31;;;;;;;2.13;1.30;;;15.80;99.90;;;;;;4893634;29;20238;-73
2022/04/16 12:33:06;;;;;;;2.13;1.33;;;15.60;99.60;;;;;;4890062;29;20279;-74
2022/04/16 12:35:37;;;;;;;2.40;1.30;;;15.50;99.60;;;;;;4894197;29;20744;-74
2022/04/16 12:38:04;;;;;;;2.07;1.53;;;15.50;99.90;;;;;;4893332;29;20272;-76
2022/04/16 12:40:33;;;;;;;2.20;1.53;;;15.40;99.90;;;;;;4893576;29;20231;-75
2022/04/16 12:43:00;;;;;;;1.97;1.53;;;15.30;99.90;;;;;;4893990;29;20267;-75
2022/04/16 12:45:30;;;;;;;1.90;1.50;;;15.40;99.90;;;;;;4892651;29;20578;-74
2022/04/16 12:47:57;;;;;;;2.60;1.80;;;15.70;99.90;;;;;;4919413;29;20264;-77
2022/04/16 12:50:26;;;;;;;2.53;1.30;;;15.50;99.90;;;;;;4888839;29;20603;-74
2022/04/16 12:52:53;;;;;;;4.17;1.47;;;15.60;99.90;;;;;;4893872;29;20200;-73
2022/04/16 12:55:20;;;;;;;2.57;1.20;;;15.60;99.40;;;;;;4891684;29;20200;-74
2022/04/16 12:57:46;;;;;;;4.40;1.90;;;15.60;99.70;;;;;;4893775;29;20604;-74
2022/04/16 13:00:15;;;;;;;2.07;1.50;;;15.60;99.90;;;;;;4892244;29;20240;-73
2022/04/16 13:02:44;;;;;;;2.33;1.57;;;15.60;99.90;;;;;;4890196;29;20227;-74
2022/04/16 13:05:12;;;;;;;2.47;1.90;;;15.70;99.90;;;;;;4894120;29;20677;-75
2022/04/16 13:07:46;;;;;;;2.17;1.60;;;15.80;99.90;;;;;;4893081;29;20203;-77
2022/04/16 13:10:14;;;;;;;1.87;1.50;;;16.10;99.90;;;;;;4892129;29;20708;-75
2022/04/16 13:12:41;;;;;;;2.57;1.23;;;16.10;99.90;;;;;;4894783;29;20201;-75
2022/04/16 13:15:09;;;;;;;2.60;1.43;;;15.90;99.30;;;;;;4888579;29;20574;-74
2022/04/16 13:17:36;;;;;;;3.53;1.33;;;15.90;99.20;;;;;;4894564;29;20247;-77